This is the latest recevied weather packets stored in our database for station/object CA2RRL-10. If no packets are shown the sender has not sent any weather packets the latest 1 day(s).
| Time | Temp. | Humidity | Pressure | Rain* | Wind** | Luminosity | Snow |
|---|---|---|---|---|---|---|---|
| 1778106841 | 15.56° C | 62% | 1033 hPa | - | - | - | - |
| 1778105941 | 16.11° C | 61% | 1032.9 hPa | - | - | - | - |
| 1778098740 | 18.33° C | 47% | 1032.4 hPa | - | - | - | - |
| 1778097840 | 18.89° C | 46% | 1032.3 hPa | - | - | - | - |
| 1778096940 | 18.89° C | 44% | 1032.4 hPa | - | - | - | - |
| 1778096040 | 19.44° C | 42% | 1032.3 hPa | - | - | - | - |
| 1778088839 | 20° C | 33% | 1032.5 hPa | - | - | - | - |
| 1778087939 | 20° C | 34% | 1032.4 hPa | - | - | - | - |
| 1778087039 | 20° C | 34% | 1032.2 hPa | - | - | - | - |
| 1778086139 | 20° C | 36% | 1032 hPa | - | - | - | - |
| 1778078038 | 14.44° C | 70% | 1032.5 hPa | - | - | - | - |
| 1778077138 | 13.89° C | 72% | 1032.4 hPa | - | - | - | - |
| 1778076238 | 12.78° C | 77% | 1032.4 hPa | - | - | - | - |
| 1778075338 | 11.67° C | 80% | 1032.7 hPa | - | - | - | - |
| 1778067237 | 8.33° C | 74% | 1031.8 hPa | - | - | - | - |
| 1778066336 | 8.33° C | 75% | 1031.6 hPa | - | - | - | - |
| 1778065436 | 8.33° C | 75% | 1031.2 hPa | - | - | - | - |
| 1778064536 | 8.89° C | 74% | 1031.1 hPa | - | - | - | - |
| 1778063636 | 8.89° C | 74% | 1031 hPa | - | - | - | - |
| 1778059135 | 9.44° C | 72% | 1030 hPa | - | - | - | - |
| 1778058235 | 10° C | 71% | 1029.7 hPa | - | - | - | - |
| 1778057335 | 10° C | 72% | 1029.7 hPa | - | - | - | - |
| 1778056435 | 10° C | 71% | 1029.7 hPa | - | - | - | - |
| 1778055535 | 10.56° C | 70% | 1029.6 hPa | - | - | - | - |
| 1778054635 | 10.56° C | 70% | 1029.5 hPa | - | - | - | - |
* Rain since midnight (hover to see other rain measurements)
** Current wind speed in m/s (hover to see current wind gust speed)